sensor_id;sensor_type;location;lat;lon;timestamp;P1;durP1;ratioP1;P2;durP2;ratioP2
8161;SDS011;16778;48.154;15.094;2023-05-07T00:01:45;1.33;;;1.07;;
8161;SDS011;16778;48.154;15.094;2023-05-07T00:04:11;1.17;;;1.07;;
8161;SDS011;16778;48.154;15.094;2023-05-07T00:06:36;1.50;;;1.07;;
8161;SDS011;16778;48.154;15.094;2023-05-07T00:09:02;1.70;;;1.23;;
8161;SDS011;16778;48.154;15.094;2023-05-07T00:11:29;1.63;;;1.13;;
8161;SDS011;16778;48.154;15.094;2023-05-07T00:13:55;1.00;;;0.90;;
8161;SDS011;16778;48.154;15.094;2023-05-07T00:16:20;1.70;;;1.00;;
8161;SDS011;16778;48.154;15.094;2023-05-07T00:18:46;1.10;;;1.00;;
8161;SDS011;16778;48.154;15.094;2023-05-07T00:21:12;1.37;;;1.20;;
8161;SDS011;16778;48.154;15.094;2023-05-07T00:23:37;1.20;;;1.10;;
8161;SDS011;16778;48.154;15.094;2023-05-07T00:26:03;0.90;;;0.87;;
8161;SDS011;16778;48.154;15.094;2023-05-07T00:28:29;4.53;;;1.10;;
8161;SDS011;16778;48.154;15.094;2023-05-07T00:30:54;1.20;;;1.00;;
8161;SDS011;16778;48.154;15.094;2023-05-07T00:33:20;1.23;;;1.07;;
8161;SDS011;16778;48.154;15.094;2023-05-07T00:35:47;1.60;;;1.23;;
8161;SDS011;16778;48.154;15.094;2023-05-07T00:38:13;1.30;;;1.10;;
8161;SDS011;16778;48.154;15.094;2023-05-07T00:40:39;1.50;;;1.40;;
8161;SDS011;16778;48.154;15.094;2023-05-07T00:43:04;1.73;;;0.67;;
8161;SDS011;16778;48.154;15.094;2023-05-07T00:45:30;1.70;;;1.10;;
8161;SDS011;16778;48.154;15.094;2023-05-07T00:47:57;1.63;;;1.20;;
8161;SDS011;16778;48.154;15.094;2023-05-07T00:50:25;1.83;;;1.20;;
8161;SDS011;16778;48.154;15.094;2023-05-07T00:52:53;3.33;;;1.23;;
8161;SDS011;16778;48.154;15.094;2023-05-07T00:55:19;1.40;;;1.10;;
8161;SDS011;16778;48.154;15.094;2023-05-07T00:57:46;1.13;;;0.70;;
8161;SDS011;16778;48.154;15.094;2023-05-07T01:00:12;0.80;;;0.80;;
8161;SDS011;16778;48.154;15.094;2023-05-07T01:02:38;1.00;;;0.90;;
8161;SDS011;16778;48.154;15.094;2023-05-07T01:05:04;1.83;;;1.00;;
8161;SDS011;16778;48.154;15.094;2023-05-07T01:07:31;1.80;;;1.10;;
8161;SDS011;16778;48.154;15.094;2023-05-07T01:09:58;1.23;;;0.93;;
8161;SDS011;16778;48.154;15.094;2023-05-07T01:12:24;1.40;;;0.87;;
8161;SDS011;16778;48.154;15.094;2023-05-07T01:14:50;1.87;;;1.20;;
8161;SDS011;16778;48.154;15.094;2023-05-07T01:17:16;1.03;;;0.80;;
8161;SDS011;16778;48.154;15.094;2023-05-07T01:19:42;1.43;;;0.90;;
8161;SDS011;16778;48.154;15.094;2023-05-07T01:22:09;1.60;;;1.00;;
8161;SDS011;16778;48.154;15.094;2023-05-07T01:24:36;1.50;;;1.00;;
8161;SDS011;16778;48.154;15.094;2023-05-07T01:27:04;1.37;;;0.97;;
8161;SDS011;16778;48.154;15.094;2023-05-07T01:29:30;1.40;;;1.00;;
8161;SDS011;16778;48.154;15.094;2023-05-07T01:31:57;1.83;;;1.03;;
8161;SDS011;16778;48.154;15.094;2023-05-07T01:34:25;1.83;;;0.97;;
8161;SDS011;16778;48.154;15.094;2023-05-07T01:36:53;1.67;;;1.17;;
8161;SDS011;16778;48.154;15.094;2023-05-07T01:39:21;1.00;;;0.90;;
8161;SDS011;16778;48.154;15.094;2023-05-07T01:41:48;0.87;;;0.83;;
8161;SDS011;16778;48.154;15.094;2023-05-07T01:44:14;1.60;;;1.07;;
8161;SDS011;16778;48.154;15.094;2023-05-07T01:46:40;0.80;;;0.80;;
8161;SDS011;16778;48.154;15.094;2023-05-07T01:49:06;1.53;;;1.10;;
8161;SDS011;16778;48.154;15.094;2023-05-07T01:51:32;1.47;;;0.70;;
8161;SDS011;16778;48.154;15.094;2023-05-07T01:53:58;2.40;;;1.30;;
8161;SDS011;16778;48.154;15.094;2023-05-07T01:56:24;1.03;;;0.93;;
8161;SDS011;16778;48.154;15.094;2023-05-07T01:58:49;1.10;;;0.90;;
8161;SDS011;16778;48.154;15.094;2023-05-07T02:01:16;1.30;;;0.90;;
8161;SDS011;16778;48.154;15.094;2023-05-07T02:03:43;1.50;;;1.20;;
8161;SDS011;16778;48.154;15.094;2023-05-07T02:06:08;2.20;;;1.30;;
8161;SDS011;16778;48.154;15.094;2023-05-07T02:08:34;1.93;;;1.00;;
8161;SDS011;16778;48.154;15.094;2023-05-07T02:11:00;1.30;;;0.90;;
8161;SDS011;16778;48.154;15.094;2023-05-07T02:13:28;3.40;;;1.60;;
8161;SDS011;16778;48.154;15.094;2023-05-07T02:15:54;1.00;;;0.90;;
8161;SDS011;16778;48.154;15.094;2023-05-07T02:18:20;1.47;;;1.00;;
8161;SDS011;16778;48.154;15.094;2023-05-07T02:20:45;1.60;;;1.10;;
8161;SDS011;16778;48.154;15.094;2023-05-07T02:23:11;0.70;;;0.50;;
8161;SDS011;16778;48.154;15.094;2023-05-07T02:25:37;1.10;;;0.90;;
8161;SDS011;16778;48.154;15.094;2023-05-07T02:28:02;1.27;;;1.00;;
8161;SDS011;16778;48.154;15.094;2023-05-07T02:30:28;1.10;;;0.80;;
8161;SDS011;16778;48.154;15.094;2023-05-07T02:32:54;1.80;;;1.30;;
8161;SDS011;16778;48.154;15.094;2023-05-07T02:35:20;0.97;;;0.80;;
8161;SDS011;16778;48.154;15.094;2023-05-07T02:37:45;0.80;;;0.80;;
8161;SDS011;16778;48.154;15.094;2023-05-07T02:40:11;1.67;;;0.93;;
8161;SDS011;16778;48.154;15.094;2023-05-07T02:42:37;1.87;;;1.20;;
8161;SDS011;16778;48.154;15.094;2023-05-07T02:45:03;2.20;;;1.27;;
8161;SDS011;16778;48.154;15.094;2023-05-07T02:47:29;0.97;;;0.90;;
8161;SDS011;16778;48.154;15.094;2023-05-07T02:49:54;1.97;;;0.83;;
8161;SDS011;16778;48.154;15.094;2023-05-07T02:52:20;1.03;;;0.90;;
8161;SDS011;16778;48.154;15.094;2023-05-07T02:54:46;2.00;;;1.00;;
8161;SDS011;16778;48.154;15.094;2023-05-07T02:57:12;1.63;;;0.93;;
8161;SDS011;16778;48.154;15.094;2023-05-07T02:59:38;2.00;;;0.97;;
8161;SDS011;16778;48.154;15.094;2023-05-07T03:02:03;1.23;;;0.80;;
8161;SDS011;16778;48.154;15.094;2023-05-07T03:04:29;1.73;;;1.20;;
8161;SDS011;16778;48.154;15.094;2023-05-07T03:06:54;1.20;;;1.10;;
8161;SDS011;16778;48.154;15.094;2023-05-07T03:09:20;0.87;;;0.70;;
8161;SDS011;16778;48.154;15.094;2023-05-07T03:11:46;0.70;;;0.70;;
8161;SDS011;16778;48.154;15.094;2023-05-07T03:14:11;2.27;;;1.00;;
8161;SDS011;16778;48.154;15.094;2023-05-07T03:16:37;1.10;;;1.00;;
8161;SDS011;16778;48.154;15.094;2023-05-07T03:19:03;1.80;;;1.20;;
8161;SDS011;16778;48.154;15.094;2023-05-07T03:21:29;2.07;;;1.10;;
8161;SDS011;16778;48.154;15.094;2023-05-07T03:23:55;1.17;;;1.03;;
8161;SDS011;16778;48.154;15.094;2023-05-07T03:26:21;0.90;;;0.70;;
8161;SDS011;16778;48.154;15.094;2023-05-07T03:28:47;1.00;;;0.83;;
8161;SDS011;16778;48.154;15.094;2023-05-07T03:31:12;1.43;;;0.80;;
8161;SDS011;16778;48.154;15.094;2023-05-07T03:33:42;1.00;;;0.90;;
8161;SDS011;16778;48.154;15.094;2023-05-07T03:36:17;1.27;;;0.93;;
8161;SDS011;16778;48.154;15.094;2023-05-07T03:38:43;0.97;;;0.90;;
8161;SDS011;16778;48.154;15.094;2023-05-07T03:41:09;1.33;;;0.83;;
8161;SDS011;16778;48.154;15.094;2023-05-07T03:43:35;1.00;;;0.90;;
8161;SDS011;16778;48.154;15.094;2023-05-07T03:46:00;1.40;;;0.90;;
8161;SDS011;16778;48.154;15.094;2023-05-07T03:48:26;1.60;;;1.10;;
8161;SDS011;16778;48.154;15.094;2023-05-07T03:50:51;1.87;;;1.10;;
8161;SDS011;16778;48.154;15.094;2023-05-07T03:53:17;0.60;;;0.60;;
8161;SDS011;16778;48.154;15.094;2023-05-07T03:55:43;1.20;;;1.00;;
8161;SDS011;16778;48.154;15.094;2023-05-07T03:58:08;1.70;;;0.77;;
8161;SDS011;16778;48.154;15.094;2023-05-07T04:00:34;8.80;;;1.10;;
8161;SDS011;16778;48.154;15.094;2023-05-07T04:03:03;1.70;;;1.10;;
8161;SDS011;16778;48.154;15.094;2023-05-07T04:05:30;1.20;;;1.10;;
8161;SDS011;16778;48.154;15.094;2023-05-07T04:07:57;1.30;;;1.10;;
8161;SDS011;16778;48.154;15.094;2023-05-07T04:10:23;2.87;;;0.97;;
8161;SDS011;16778;48.154;15.094;2023-05-07T04:12:48;0.73;;;0.73;;
8161;SDS011;16778;48.154;15.094;2023-05-07T04:15:14;1.33;;;1.13;;
8161;SDS011;16778;48.154;15.094;2023-05-07T04:17:40;1.20;;;1.10;;
8161;SDS011;16778;48.154;15.094;2023-05-07T04:20:08;0.90;;;0.80;;
8161;SDS011;16778;48.154;15.094;2023-05-07T04:22:35;1.30;;;1.10;;
8161;SDS011;16778;48.154;15.094;2023-05-07T04:25:01;1.50;;;0.90;;
8161;SDS011;16778;48.154;15.094;2023-05-07T04:27:27;1.83;;;1.00;;
8161;SDS011;16778;48.154;15.094;2023-05-07T04:29:53;1.97;;;1.03;;
8161;SDS011;16778;48.154;15.094;2023-05-07T04:32:20;1.10;;;1.00;;
8161;SDS011;16778;48.154;15.094;2023-05-07T04:34:50;0.90;;;0.77;;
8161;SDS011;16778;48.154;15.094;2023-05-07T04:37:15;1.03;;;0.93;;
8161;SDS011;16778;48.154;15.094;2023-05-07T04:39:41;1.00;;;0.90;;
8161;SDS011;16778;48.154;15.094;2023-05-07T04:42:06;1.20;;;1.10;;
8161;SDS011;16778;48.154;15.094;2023-05-07T04:44:33;1.23;;;0.87;;
8161;SDS011;16778;48.154;15.094;2023-05-07T04:47:00;1.97;;;1.10;;
8161;SDS011;16778;48.154;15.094;2023-05-07T04:49:26;1.10;;;1.00;;
8161;SDS011;16778;48.154;15.094;2023-05-07T04:51:51;1.43;;;1.17;;
8161;SDS011;16778;48.154;15.094;2023-05-07T04:54:17;1.07;;;0.97;;
8161;SDS011;16778;48.154;15.094;2023-05-07T04:56:42;1.33;;;1.23;;
8161;SDS011;16778;48.154;15.094;2023-05-07T04:59:08;2.27;;;1.20;;
8161;SDS011;16778;48.154;15.094;2023-05-07T05:01:34;2.43;;;1.27;;
8161;SDS011;16778;48.154;15.094;2023-05-07T05:03:59;1.20;;;1.10;;
8161;SDS011;16778;48.154;15.094;2023-05-07T05:06:25;1.73;;;1.23;;
8161;SDS011;16778;48.154;15.094;2023-05-07T05:08:51;1.83;;;1.50;;
8161;SDS011;16778;48.154;15.094;2023-05-07T05:11:16;2.03;;;1.43;;
8161;SDS011;16778;48.154;15.094;2023-05-07T05:13:42;1.83;;;1.30;;
8161;SDS011;16778;48.154;15.094;2023-05-07T05:16:08;1.27;;;1.17;;
8161;SDS011;16778;48.154;15.094;2023-05-07T05:18:34;1.67;;;1.00;;
8161;SDS011;16778;48.154;15.094;2023-05-07T05:21:00;2.30;;;1.20;;
8161;SDS011;16778;48.154;15.094;2023-05-07T05:23:25;1.30;;;1.20;;
8161;SDS011;16778;48.154;15.094;2023-05-07T05:25:55;2.20;;;1.57;;
8161;SDS011;16778;48.154;15.094;2023-05-07T05:28:23;3.93;;;1.37;;
8161;SDS011;16778;48.154;15.094;2023-05-07T05:30:50;1.90;;;1.30;;
8161;SDS011;16778;48.154;15.094;2023-05-07T05:33:16;1.63;;;1.23;;
8161;SDS011;16778;48.154;15.094;2023-05-07T05:35:42;2.40;;;1.83;;
8161;SDS011;16778;48.154;15.094;2023-05-07T05:38:08;2.43;;;1.40;;
8161;SDS011;16778;48.154;15.094;2023-05-07T05:40:33;2.47;;;1.70;;
8161;SDS011;16778;48.154;15.094;2023-05-07T05:42:59;2.60;;;1.70;;
8161;SDS011;16778;48.154;15.094;2023-05-07T05:45:25;4.70;;;2.07;;
8161;SDS011;16778;48.154;15.094;2023-05-07T05:47:51;10.23;;;3.27;;
8161;SDS011;16778;48.154;15.094;2023-05-07T05:50:16;3.53;;;2.70;;
8161;SDS011;16778;48.154;15.094;2023-05-07T05:52:42;3.60;;;2.20;;
8161;SDS011;16778;48.154;15.094;2023-05-07T05:55:08;3.50;;;1.83;;
8161;SDS011;16778;48.154;15.094;2023-05-07T05:57:34;3.80;;;1.77;;
8161;SDS011;16778;48.154;15.094;2023-05-07T06:00:00;3.27;;;1.93;;
8161;SDS011;16778;48.154;15.094;2023-05-07T06:02:26;2.13;;;1.53;;
8161;SDS011;16778;48.154;15.094;2023-05-07T06:04:52;2.90;;;2.00;;
8161;SDS011;16778;48.154;15.094;2023-05-07T06:07:18;3.03;;;1.80;;
8161;SDS011;16778;48.154;15.094;2023-05-07T06:09:43;4.20;;;2.07;;
8161;SDS011;16778;48.154;15.094;2023-05-07T06:12:09;3.53;;;2.20;;
8161;SDS011;16778;48.154;15.094;2023-05-07T06:14:34;3.13;;;2.00;;
8161;SDS011;16778;48.154;15.094;2023-05-07T06:17:00;2.47;;;1.80;;
8161;SDS011;16778;48.154;15.094;2023-05-07T06:19:26;2.70;;;2.13;;
8161;SDS011;16778;48.154;15.094;2023-05-07T06:21:53;2.83;;;2.23;;
8161;SDS011;16778;48.154;15.094;2023-05-07T06:24:18;2.73;;;2.20;;
8161;SDS011;16778;48.154;15.094;2023-05-07T06:26:44;3.03;;;1.90;;
8161;SDS011;16778;48.154;15.094;2023-05-07T06:29:10;2.83;;;2.00;;
8161;SDS011;16778;48.154;15.094;2023-05-07T06:31:35;2.43;;;2.00;;
8161;SDS011;16778;48.154;15.094;2023-05-07T06:34:01;3.97;;;2.07;;
8161;SDS011;16778;48.154;15.094;2023-05-07T06:36:27;6.40;;;3.07;;
8161;SDS011;16778;48.154;15.094;2023-05-07T06:38:53;4.27;;;2.07;;
8161;SDS011;16778;48.154;15.094;2023-05-07T06:41:19;2.83;;;2.27;;
8161;SDS011;16778;48.154;15.094;2023-05-07T06:43:45;3.07;;;2.30;;
8161;SDS011;16778;48.154;15.094;2023-05-07T06:46:11;4.73;;;2.50;;
8161;SDS011;16778;48.154;15.094;2023-05-07T06:48:36;3.93;;;2.30;;
8161;SDS011;16778;48.154;15.094;2023-05-07T06:51:02;6.07;;;2.80;;
8161;SDS011;16778;48.154;15.094;2023-05-07T06:53:28;2.67;;;2.00;;
8161;SDS011;16778;48.154;15.094;2023-05-07T06:55:55;3.07;;;2.07;;
8161;SDS011;16778;48.154;15.094;2023-05-07T06:58:21;3.43;;;1.93;;
8161;SDS011;16778;48.154;15.094;2023-05-07T07:00:47;3.43;;;2.20;;
8161;SDS011;16778;48.154;15.094;2023-05-07T07:03:12;3.83;;;2.27;;
8161;SDS011;16778;48.154;15.094;2023-05-07T07:05:40;3.80;;;2.20;;
8161;SDS011;16778;48.154;15.094;2023-05-07T07:08:06;4.13;;;2.90;;
8161;SDS011;16778;48.154;15.094;2023-05-07T07:10:31;4.40;;;2.40;;
8161;SDS011;16778;48.154;15.094;2023-05-07T07:12:57;3.73;;;2.10;;
8161;SDS011;16778;48.154;15.094;2023-05-07T07:15:22;3.53;;;2.57;;
8161;SDS011;16778;48.154;15.094;2023-05-07T07:17:50;3.87;;;2.23;;
8161;SDS011;16778;48.154;15.094;2023-05-07T07:20:16;4.00;;;2.53;;
8161;SDS011;16778;48.154;15.094;2023-05-07T07:22:41;3.27;;;2.30;;
8161;SDS011;16778;48.154;15.094;2023-05-07T07:25:07;3.53;;;2.60;;
8161;SDS011;16778;48.154;15.094;2023-05-07T07:27:33;3.40;;;2.20;;
8161;SDS011;16778;48.154;15.094;2023-05-07T07:29:59;2.50;;;2.03;;
8161;SDS011;16778;48.154;15.094;2023-05-07T07:32:25;3.30;;;2.67;;
8161;SDS011;16778;48.154;15.094;2023-05-07T07:34:51;3.53;;;2.33;;
8161;SDS011;16778;48.154;15.094;2023-05-07T07:37:16;4.27;;;2.73;;
8161;SDS011;16778;48.154;15.094;2023-05-07T07:39:42;3.47;;;2.40;;
8161;SDS011;16778;48.154;15.094;2023-05-07T07:42:08;4.27;;;3.00;;
8161;SDS011;16778;48.154;15.094;2023-05-07T07:44:33;2.80;;;1.90;;
8161;SDS011;16778;48.154;15.094;2023-05-07T07:46:59;3.83;;;2.40;;
8161;SDS011;16778;48.154;15.094;2023-05-07T07:49:25;2.67;;;2.37;;
8161;SDS011;16778;48.154;15.094;2023-05-07T07:51:51;4.67;;;2.87;;
8161;SDS011;16778;48.154;15.094;2023-05-07T07:54:16;3.77;;;2.67;;
8161;SDS011;16778;48.154;15.094;2023-05-07T07:56:42;2.83;;;2.20;;
8161;SDS011;16778;48.154;15.094;2023-05-07T07:59:08;3.40;;;2.23;;
8161;SDS011;16778;48.154;15.094;2023-05-07T08:01:33;3.30;;;2.67;;
8161;SDS011;16778;48.154;15.094;2023-05-07T08:03:59;2.77;;;2.37;;
8161;SDS011;16778;48.154;15.094;2023-05-07T08:06:27;4.17;;;2.30;;
8161;SDS011;16778;48.154;15.094;2023-05-07T08:08:53;3.03;;;2.30;;
8161;SDS011;16778;48.154;15.094;2023-05-07T08:11:20;3.37;;;2.50;;
8161;SDS011;16778;48.154;15.094;2023-05-07T08:13:46;3.50;;;2.57;;
8161;SDS011;16778;48.154;15.094;2023-05-07T08:16:12;4.43;;;2.60;;
8161;SDS011;16778;48.154;15.094;2023-05-07T08:18:37;2.90;;;2.50;;
8161;SDS011;16778;48.154;15.094;2023-05-07T08:21:03;4.23;;;2.63;;
8161;SDS011;16778;48.154;15.094;2023-05-07T08:23:29;3.43;;;2.47;;
8161;SDS011;16778;48.154;15.094;2023-05-07T08:25:55;4.67;;;2.63;;
8161;SDS011;16778;48.154;15.094;2023-05-07T08:28:21;3.63;;;2.43;;
8161;SDS011;16778;48.154;15.094;2023-05-07T08:30:47;3.90;;;2.20;;
8161;SDS011;16778;48.154;15.094;2023-05-07T08:33:12;3.80;;;2.60;;
8161;SDS011;16778;48.154;15.094;2023-05-07T08:35:38;4.73;;;3.00;;
8161;SDS011;16778;48.154;15.094;2023-05-07T08:38:04;4.93;;;2.40;;
8161;SDS011;16778;48.154;15.094;2023-05-07T08:40:29;2.87;;;2.40;;
8161;SDS011;16778;48.154;15.094;2023-05-07T08:43:01;3.97;;;2.80;;
8161;SDS011;16778;48.154;15.094;2023-05-07T08:45:27;3.10;;;2.77;;
8161;SDS011;16778;48.154;15.094;2023-05-07T08:47:55;4.30;;;2.13;;
8161;SDS011;16778;48.154;15.094;2023-05-07T08:50:24;5.50;;;2.43;;
8161;SDS011;16778;48.154;15.094;2023-05-07T08:52:50;5.20;;;2.90;;
8161;SDS011;16778;48.154;15.094;2023-05-07T08:55:15;4.47;;;2.70;;
8161;SDS011;16778;48.154;15.094;2023-05-07T08:57:41;4.93;;;2.30;;
8161;SDS011;16778;48.154;15.094;2023-05-07T09:00:07;4.27;;;2.67;;
8161;SDS011;16778;48.154;15.094;2023-05-07T09:02:35;4.10;;;2.67;;
8161;SDS011;16778;48.154;15.094;2023-05-07T09:05:01;3.43;;;2.50;;
8161;SDS011;16778;48.154;15.094;2023-05-07T09:07:27;4.33;;;2.67;;
8161;SDS011;16778;48.154;15.094;2023-05-07T09:09:53;2.53;;;2.33;;
8161;SDS011;16778;48.154;15.094;2023-05-07T09:12:22;3.50;;;2.70;;
8161;SDS011;16778;48.154;15.094;2023-05-07T09:14:48;3.23;;;2.47;;
8161;SDS011;16778;48.154;15.094;2023-05-07T09:17:18;4.40;;;2.83;;
8161;SDS011;16778;48.154;15.094;2023-05-07T09:19:44;3.93;;;2.53;;
8161;SDS011;16778;48.154;15.094;2023-05-07T09:22:10;4.43;;;2.90;;
8161;SDS011;16778;48.154;15.094;2023-05-07T09:24:36;3.90;;;2.50;;
8161;SDS011;16778;48.154;15.094;2023-05-07T09:27:06;3.37;;;2.33;;
8161;SDS011;16778;48.154;15.094;2023-05-07T09:29:33;5.13;;;2.60;;
8161;SDS011;16778;48.154;15.094;2023-05-07T09:32:06;3.63;;;2.53;;
8161;SDS011;16778;48.154;15.094;2023-05-07T09:34:33;3.00;;;2.30;;
8161;SDS011;16778;48.154;15.094;2023-05-07T09:36:59;4.43;;;2.47;;
8161;SDS011;16778;48.154;15.094;2023-05-07T09:39:38;5.07;;;2.93;;
8161;SDS011;16778;48.154;15.094;2023-05-07T09:42:05;2.73;;;2.17;;
8161;SDS011;16778;48.154;15.094;2023-05-07T09:44:31;4.03;;;2.57;;
8161;SDS011;16778;48.154;15.094;2023-05-07T09:46:57;3.27;;;2.30;;
8161;SDS011;16778;48.154;15.094;2023-05-07T09:49:25;3.20;;;2.33;;
8161;SDS011;16778;48.154;15.094;2023-05-07T09:51:57;3.37;;;2.30;;
8161;SDS011;16778;48.154;15.094;2023-05-07T09:54:25;2.97;;;2.10;;
8161;SDS011;16778;48.154;15.094;2023-05-07T09:56:52;2.33;;;2.03;;
8161;SDS011;16778;48.154;15.094;2023-05-07T09:59:18;4.73;;;2.37;;
8161;SDS011;16778;48.154;15.094;2023-05-07T10:01:44;3.57;;;2.30;;
8161;SDS011;16778;48.154;15.094;2023-05-07T10:04:10;2.57;;;2.07;;
8161;SDS011;16778;48.154;15.094;2023-05-07T10:06:37;3.73;;;2.40;;
8161;SDS011;16778;48.154;15.094;2023-05-07T10:09:03;2.53;;;2.13;;
8161;SDS011;16778;48.154;15.094;2023-05-07T10:11:35;2.70;;;2.00;;
8161;SDS011;16778;48.154;15.094;2023-05-07T10:14:01;3.37;;;2.37;;
8161;SDS011;16778;48.154;15.094;2023-05-07T10:16:31;3.20;;;2.33;;
8161;SDS011;16778;48.154;15.094;2023-05-07T10:18:58;2.90;;;2.47;;
8161;SDS011;16778;48.154;15.094;2023-05-07T10:21:24;2.87;;;2.40;;
8161;SDS011;16778;48.154;15.094;2023-05-07T10:23:59;3.13;;;2.40;;
8161;SDS011;16778;48.154;15.094;2023-05-07T10:26:31;4.13;;;2.33;;
8161;SDS011;16778;48.154;15.094;2023-05-07T10:28:58;3.43;;;2.10;;
8161;SDS011;16778;48.154;15.094;2023-05-07T10:33:59;2.83;;;2.30;;
8161;SDS011;16778;48.154;15.094;2023-05-07T10:36:26;3.00;;;2.00;;
8161;SDS011;16778;48.154;15.094;2023-05-07T10:38:52;2.90;;;1.93;;
8161;SDS011;16778;48.154;15.094;2023-05-07T10:41:18;4.23;;;2.37;;
8161;SDS011;16778;48.154;15.094;2023-05-07T10:43:46;3.33;;;2.37;;
8161;SDS011;16778;48.154;15.094;2023-05-07T10:46:16;3.00;;;2.17;;
8161;SDS011;16778;48.154;15.094;2023-05-07T10:51:31;3.13;;;1.70;;
8161;SDS011;16778;48.154;15.094;2023-05-07T10:56:35;4.77;;;2.90;;
8161;SDS011;16778;48.154;15.094;2023-05-07T11:02:04;6.67;;;2.37;;
8161;SDS011;16778;48.154;15.094;2023-05-07T11:04:34;3.60;;;2.20;;
8161;SDS011;16778;48.154;15.094;2023-05-07T11:15:07;3.23;;;2.37;;
8161;SDS011;16778;48.154;15.094;2023-05-07T11:17:52;4.50;;;2.73;;
8161;SDS011;16778;48.154;15.094;2023-05-07T11:26:02;4.10;;;2.50;;
8161;SDS011;16778;48.154;15.094;2023-05-07T11:28:39;3.53;;;2.77;;
8161;SDS011;16778;48.154;15.094;2023-05-07T11:31:05;2.80;;;2.00;;
8161;SDS011;16778;48.154;15.094;2023-05-07T11:33:32;2.80;;;2.47;;
8161;SDS011;16778;48.154;15.094;2023-05-07T11:35:59;3.23;;;2.53;;
8161;SDS011;16778;48.154;15.094;2023-05-07T11:38:25;3.63;;;2.30;;
8161;SDS011;16778;48.154;15.094;2023-05-07T11:43:21;4.27;;;3.03;;
8161;SDS011;16778;48.154;15.094;2023-05-07T11:45:46;3.70;;;2.63;;
8161;SDS011;16778;48.154;15.094;2023-05-07T11:48:13;2.90;;;2.07;;
8161;SDS011;16778;48.154;15.094;2023-05-07T11:50:52;4.50;;;2.70;;
8161;SDS011;16778;48.154;15.094;2023-05-07T11:53:25;3.40;;;2.67;;
8161;SDS011;16778;48.154;15.094;2023-05-07T11:56:00;4.13;;;3.10;;
8161;SDS011;16778;48.154;15.094;2023-05-07T11:58:30;3.20;;;2.77;;
8161;SDS011;16778;48.154;15.094;2023-05-07T12:00:56;3.47;;;2.70;;
8161;SDS011;16778;48.154;15.094;2023-05-07T12:03:22;4.00;;;2.10;;
8161;SDS011;16778;48.154;15.094;2023-05-07T12:05:47;3.00;;;2.57;;
8161;SDS011;16778;48.154;15.094;2023-05-07T12:08:14;3.93;;;3.10;;
8161;SDS011;16778;48.154;15.094;2023-05-07T12:10:43;4.73;;;3.23;;
8161;SDS011;16778;48.154;15.094;2023-05-07T12:13:19;3.43;;;2.63;;
8161;SDS011;16778;48.154;15.094;2023-05-07T12:15:46;3.40;;;2.83;;
8161;SDS011;16778;48.154;15.094;2023-05-07T12:18:11;3.67;;;2.97;;
8161;SDS011;16778;48.154;15.094;2023-05-07T12:20:37;3.67;;;2.83;;
8161;SDS011;16778;48.154;15.094;2023-05-07T12:23:03;4.67;;;3.07;;
8161;SDS011;16778;48.154;15.094;2023-05-07T12:25:38;3.47;;;2.83;;
8161;SDS011;16778;48.154;15.094;2023-05-07T12:28:05;2.77;;;2.30;;
8161;SDS011;16778;48.154;15.094;2023-05-07T12:30:36;3.53;;;2.73;;
8161;SDS011;16778;48.154;15.094;2023-05-07T12:33:02;4.43;;;2.63;;
8161;SDS011;16778;48.154;15.094;2023-05-07T12:35:31;4.20;;;2.97;;
8161;SDS011;16778;48.154;15.094;2023-05-07T12:38:01;3.67;;;2.93;;
8161;SDS011;16778;48.154;15.094;2023-05-07T12:40:38;4.60;;;2.63;;
8161;SDS011;16778;48.154;15.094;2023-05-07T12:43:08;3.20;;;2.90;;
8161;SDS011;16778;48.154;15.094;2023-05-07T12:45:41;2.97;;;2.50;;
8161;SDS011;16778;48.154;15.094;2023-05-07T12:48:09;4.97;;;3.20;;
8161;SDS011;16778;48.154;15.094;2023-05-07T12:50:35;4.13;;;2.70;;
8161;SDS011;16778;48.154;15.094;2023-05-07T12:53:03;4.30;;;3.27;;
8161;SDS011;16778;48.154;15.094;2023-05-07T12:55:39;3.47;;;3.17;;
8161;SDS011;16778;48.154;15.094;2023-05-07T12:58:19;4.17;;;3.30;;
8161;SDS011;16778;48.154;15.094;2023-05-07T13:00:52;2.70;;;2.33;;
8161;SDS011;16778;48.154;15.094;2023-05-07T13:05:48;3.70;;;3.10;;
8161;SDS011;16778;48.154;15.094;2023-05-07T13:08:27;4.83;;;2.87;;
8161;SDS011;16778;48.154;15.094;2023-05-07T13:11:00;4.07;;;2.60;;
8161;SDS011;16778;48.154;15.094;2023-05-07T13:13:28;4.37;;;3.17;;
8161;SDS011;16778;48.154;15.094;2023-05-07T13:15:57;4.10;;;2.93;;
8161;SDS011;16778;48.154;15.094;2023-05-07T13:18:26;3.30;;;2.60;;
8161;SDS011;16778;48.154;15.094;2023-05-07T13:20:52;3.70;;;2.57;;
8161;SDS011;16778;48.154;15.094;2023-05-07T13:23:19;4.23;;;3.03;;
8161;SDS011;16778;48.154;15.094;2023-05-07T13:25:44;3.07;;;2.43;;
8161;SDS011;16778;48.154;15.094;2023-05-07T13:28:10;3.73;;;2.27;;
8161;SDS011;16778;48.154;15.094;2023-05-07T13:30:36;4.43;;;2.73;;
8161;SDS011;16778;48.154;15.094;2023-05-07T13:33:01;4.03;;;2.80;;
8161;SDS011;16778;48.154;15.094;2023-05-07T13:35:27;3.17;;;2.57;;
8161;SDS011;16778;48.154;15.094;2023-05-07T13:37:53;3.13;;;2.47;;
8161;SDS011;16778;48.154;15.094;2023-05-07T13:40:20;3.10;;;2.73;;
8161;SDS011;16778;48.154;15.094;2023-05-07T13:42:46;3.50;;;2.77;;
8161;SDS011;16778;48.154;15.094;2023-05-07T13:45:12;3.67;;;2.90;;
8161;SDS011;16778;48.154;15.094;2023-05-07T13:47:39;2.87;;;2.20;;
8161;SDS011;16778;48.154;15.094;2023-05-07T13:50:06;3.17;;;2.57;;
8161;SDS011;16778;48.154;15.094;2023-05-07T13:52:32;3.97;;;2.77;;
8161;SDS011;16778;48.154;15.094;2023-05-07T13:54:58;2.67;;;2.30;;
8161;SDS011;16778;48.154;15.094;2023-05-07T13:57:24;3.17;;;2.33;;
8161;SDS011;16778;48.154;15.094;2023-05-07T13:59:49;3.27;;;2.10;;
8161;SDS011;16778;48.154;15.094;2023-05-07T14:02:15;3.07;;;2.20;;
8161;SDS011;16778;48.154;15.094;2023-05-07T14:04:41;2.80;;;2.50;;
8161;SDS011;16778;48.154;15.094;2023-05-07T14:07:06;2.77;;;2.20;;
8161;SDS011;16778;48.154;15.094;2023-05-07T14:09:32;3.27;;;2.40;;
8161;SDS011;16778;48.154;15.094;2023-05-07T14:11:58;3.00;;;2.47;;
8161;SDS011;16778;48.154;15.094;2023-05-07T14:14:24;2.43;;;1.90;;
8161;SDS011;16778;48.154;15.094;2023-05-07T14:16:50;2.75;;;2.47;;
8161;SDS011;16778;48.154;15.094;2023-05-07T14:19:15;2.58;;;2.10;;
8161;SDS011;16778;48.154;15.094;2023-05-07T14:21:41;3.22;;;2.42;;
8161;SDS011;16778;48.154;15.094;2023-05-07T14:24:07;4.82;;;3.13;;
8161;SDS011;16778;48.154;15.094;2023-05-07T14:26:36;3.17;;;2.63;;
8161;SDS011;16778;48.154;15.094;2023-05-07T14:29:02;3.83;;;2.80;;
8161;SDS011;16778;48.154;15.094;2023-05-07T14:31:28;3.27;;;2.50;;
8161;SDS011;16778;48.154;15.094;2023-05-07T14:33:54;3.30;;;2.30;;
8161;SDS011;16778;48.154;15.094;2023-05-07T14:36:20;2.27;;;2.03;;
8161;SDS011;16778;48.154;15.094;2023-05-07T14:38:47;4.03;;;2.60;;
8161;SDS011;16778;48.154;15.094;2023-05-07T14:41:13;3.20;;;2.70;;
8161;SDS011;16778;48.154;15.094;2023-05-07T14:43:39;3.70;;;2.40;;
8161;SDS011;16778;48.154;15.094;2023-05-07T14:46:04;5.27;;;2.90;;
8161;SDS011;16778;48.154;15.094;2023-05-07T14:48:30;4.40;;;2.97;;
8161;SDS011;16778;48.154;15.094;2023-05-07T14:50:56;2.97;;;2.50;;
8161;SDS011;16778;48.154;15.094;2023-05-07T14:53:21;3.00;;;2.43;;
8161;SDS011;16778;48.154;15.094;2023-05-07T14:55:47;2.77;;;2.07;;
8161;SDS011;16778;48.154;15.094;2023-05-07T14:58:13;5.17;;;2.87;;
8161;SDS011;16778;48.154;15.094;2023-05-07T15:00:39;3.00;;;2.63;;
8161;SDS011;16778;48.154;15.094;2023-05-07T15:03:06;3.03;;;2.50;;
8161;SDS011;16778;48.154;15.094;2023-05-07T15:05:33;3.50;;;2.40;;
8161;SDS011;16778;48.154;15.094;2023-05-07T15:07:59;4.30;;;2.80;;
8161;SDS011;16778;48.154;15.094;2023-05-07T15:10:25;3.67;;;2.97;;
8161;SDS011;16778;48.154;15.094;2023-05-07T15:12:50;3.43;;;2.83;;
8161;SDS011;16778;48.154;15.094;2023-05-07T15:15:16;3.60;;;2.80;;